Terminal Aerodrome Forecast
Issued by NWS

Home | Current Version | Previous Version | Text Only | Print | Product List | Glossary On
Versions: 1 2 3 4 5 6 7 8 9 10 11 12 13 14 15 16 17 18 19 20 21
000
FTUS41 KBGM 301720
TAFELM
TAF
KELM 301720Z 3018/3118 29008KT P6SM SCT040 BKN060
     FM310000 VRB03KT P6SM SCT250
      TEMPO 3108/3112 1 1/2SM BR
     FM311600 32007KT P6SM SCT050=

USA.gov is the U.S. government's official web portal to all federal, state and local government web resources and services.